sensor_id;sensor_type;location;lat;lon;timestamp;P1;durP1;ratioP1;P2;durP2;ratioP2
8279;SDS011;8335;42.646;23.380;2023-05-10T00:01:08;8.90;;;6.93;;
8279;SDS011;8335;42.646;23.380;2023-05-10T00:03:35;7.47;;;6.30;;
8279;SDS011;8335;42.646;23.380;2023-05-10T00:06:02;8.87;;;7.00;;
8279;SDS011;8335;42.646;23.380;2023-05-10T00:08:28;8.63;;;6.97;;
8279;SDS011;8335;42.646;23.380;2023-05-10T00:10:57;8.40;;;6.50;;
8279;SDS011;8335;42.646;23.380;2023-05-10T00:13:23;7.63;;;6.23;;
8279;SDS011;8335;42.646;23.380;2023-05-10T00:15:50;7.77;;;6.97;;
8279;SDS011;8335;42.646;23.380;2023-05-10T00:18:17;7.47;;;6.77;;
8279;SDS011;8335;42.646;23.380;2023-05-10T00:20:43;8.07;;;6.87;;
8279;SDS011;8335;42.646;23.380;2023-05-10T00:23:11;8.07;;;6.83;;
8279;SDS011;8335;42.646;23.380;2023-05-10T00:25:38;8.77;;;6.90;;
8279;SDS011;8335;42.646;23.380;2023-05-10T00:28:06;8.60;;;7.47;;
8279;SDS011;8335;42.646;23.380;2023-05-10T00:30:32;8.40;;;7.47;;
8279;SDS011;8335;42.646;23.380;2023-05-10T00:32:59;9.93;;;7.93;;
8279;SDS011;8335;42.646;23.380;2023-05-10T00:35:26;9.07;;;7.70;;
8279;SDS011;8335;42.646;23.380;2023-05-10T00:37:53;8.57;;;7.67;;
8279;SDS011;8335;42.646;23.380;2023-05-10T00:40:19;10.40;;;8.50;;
8279;SDS011;8335;42.646;23.380;2023-05-10T00:42:46;9.30;;;8.07;;
8279;SDS011;8335;42.646;23.380;2023-05-10T00:45:15;10.20;;;8.60;;
8279;SDS011;8335;42.646;23.380;2023-05-10T00:47:41;9.10;;;8.10;;
8279;SDS011;8335;42.646;23.380;2023-05-10T00:50:08;11.07;;;8.53;;
8279;SDS011;8335;42.646;23.380;2023-05-10T00:52:36;10.70;;;8.60;;
8279;SDS011;8335;42.646;23.380;2023-05-10T00:55:03;11.93;;;8.93;;
8279;SDS011;8335;42.646;23.380;2023-05-10T00:57:30;11.40;;;9.27;;
8279;SDS011;8335;42.646;23.380;2023-05-10T00:59:57;10.20;;;8.83;;
8279;SDS011;8335;42.646;23.380;2023-05-10T01:02:27;10.23;;;8.40;;
8279;SDS011;8335;42.646;23.380;2023-05-10T01:04:53;9.47;;;8.47;;
8279;SDS011;8335;42.646;23.380;2023-05-10T01:07:21;9.90;;;8.73;;
8279;SDS011;8335;42.646;23.380;2023-05-10T01:09:48;10.67;;;8.03;;
8279;SDS011;8335;42.646;23.380;2023-05-10T01:12:15;9.07;;;7.90;;
8279;SDS011;8335;42.646;23.380;2023-05-10T01:14:42;9.37;;;7.70;;
8279;SDS011;8335;42.646;23.380;2023-05-10T01:17:09;9.23;;;8.27;;
8279;SDS011;8335;42.646;23.380;2023-05-10T01:19:38;10.50;;;7.70;;
8279;SDS011;8335;42.646;23.380;2023-05-10T01:22:07;10.07;;;7.90;;
8279;SDS011;8335;42.646;23.380;2023-05-10T01:24:56;8.53;;;7.57;;
8279;SDS011;8335;42.646;23.380;2023-05-10T01:27:52;8.37;;;7.00;;
8279;SDS011;8335;42.646;23.380;2023-05-10T01:30:30;7.10;;;6.40;;
8279;SDS011;8335;42.646;23.380;2023-05-10T01:33:11;7.00;;;6.13;;
8279;SDS011;8335;42.646;23.380;2023-05-10T01:35:46;8.53;;;7.13;;
8279;SDS011;8335;42.646;23.380;2023-05-10T01:38:18;6.47;;;5.57;;
8279;SDS011;8335;42.646;23.380;2023-05-10T01:40:52;8.20;;;5.83;;
8279;SDS011;8335;42.646;23.380;2023-05-10T01:43:28;8.70;;;6.13;;
8279;SDS011;8335;42.646;23.380;2023-05-10T01:46:02;7.30;;;5.63;;
8279;SDS011;8335;42.646;23.380;2023-05-10T01:48:37;6.67;;;5.70;;
8279;SDS011;8335;42.646;23.380;2023-05-10T01:51:13;6.97;;;5.90;;
8279;SDS011;8335;42.646;23.380;2023-05-10T01:53:46;6.63;;;5.47;;
8279;SDS011;8335;42.646;23.380;2023-05-10T01:56:14;6.13;;;5.57;;
8279;SDS011;8335;42.646;23.380;2023-05-10T01:58:43;5.87;;;5.10;;
8279;SDS011;8335;42.646;23.380;2023-05-10T02:01:13;8.17;;;5.27;;
8279;SDS011;8335;42.646;23.380;2023-05-10T02:03:42;6.10;;;5.50;;
8279;SDS011;8335;42.646;23.380;2023-05-10T02:06:10;5.90;;;5.30;;
8279;SDS011;8335;42.646;23.380;2023-05-10T02:08:38;8.57;;;5.60;;
8279;SDS011;8335;42.646;23.380;2023-05-10T02:11:07;7.27;;;5.77;;
8279;SDS011;8335;42.646;23.380;2023-05-10T02:13:37;6.23;;;5.43;;
8279;SDS011;8335;42.646;23.380;2023-05-10T02:16:05;6.03;;;5.17;;
8279;SDS011;8335;42.646;23.380;2023-05-10T02:18:33;6.37;;;5.50;;
8279;SDS011;8335;42.646;23.380;2023-05-10T02:21:03;6.80;;;5.13;;
8279;SDS011;8335;42.646;23.380;2023-05-10T02:23:31;9.77;;;5.27;;
8279;SDS011;8335;42.646;23.380;2023-05-10T02:25:58;6.33;;;5.47;;
8279;SDS011;8335;42.646;23.380;2023-05-10T02:28:27;6.23;;;5.50;;
8279;SDS011;8335;42.646;23.380;2023-05-10T02:30:55;8.40;;;5.53;;
8279;SDS011;8335;42.646;23.380;2023-05-10T02:33:22;6.60;;;5.37;;
8279;SDS011;8335;42.646;23.380;2023-05-10T02:35:50;7.03;;;5.63;;
8279;SDS011;8335;42.646;23.380;2023-05-10T02:38:19;6.80;;;4.73;;
8279;SDS011;8335;42.646;23.380;2023-05-10T02:40:48;7.43;;;5.13;;
8279;SDS011;8335;42.646;23.380;2023-05-10T02:43:17;6.13;;;5.13;;
8279;SDS011;8335;42.646;23.380;2023-05-10T02:45:46;7.33;;;5.80;;
8279;SDS011;8335;42.646;23.380;2023-05-10T02:48:14;7.40;;;5.40;;
8279;SDS011;8335;42.646;23.380;2023-05-10T02:50:42;7.97;;;5.70;;
8279;SDS011;8335;42.646;23.380;2023-05-10T02:53:14;8.40;;;5.57;;
8279;SDS011;8335;42.646;23.380;2023-05-10T02:55:47;9.97;;;5.60;;
8279;SDS011;8335;42.646;23.380;2023-05-10T02:58:17;8.53;;;5.00;;
8279;SDS011;8335;42.646;23.380;2023-05-10T03:00:46;7.47;;;5.53;;
8279;SDS011;8335;42.646;23.380;2023-05-10T03:03:12;5.97;;;4.73;;
8279;SDS011;8335;42.646;23.380;2023-05-10T03:05:39;6.13;;;5.40;;
8279;SDS011;8335;42.646;23.380;2023-05-10T03:08:06;7.43;;;5.80;;
8279;SDS011;8335;42.646;23.380;2023-05-10T03:10:33;7.67;;;5.43;;
8279;SDS011;8335;42.646;23.380;2023-05-10T03:13:14;6.43;;;4.80;;
8279;SDS011;8335;42.646;23.380;2023-05-10T03:15:53;5.60;;;4.83;;
8279;SDS011;8335;42.646;23.380;2023-05-10T03:18:33;7.20;;;5.17;;
8279;SDS011;8335;42.646;23.380;2023-05-10T03:21:05;9.83;;;5.47;;
8279;SDS011;8335;42.646;23.380;2023-05-10T03:23:39;6.83;;;4.97;;
8279;SDS011;8335;42.646;23.380;2023-05-10T03:26:09;8.53;;;5.00;;
8279;SDS011;8335;42.646;23.380;2023-05-10T03:28:38;8.50;;;5.70;;
8279;SDS011;8335;42.646;23.380;2023-05-10T03:31:06;7.60;;;5.53;;
8279;SDS011;8335;42.646;23.380;2023-05-10T03:33:33;8.73;;;5.87;;
8279;SDS011;8335;42.646;23.380;2023-05-10T03:36:00;6.67;;;5.40;;
8279;SDS011;8335;42.646;23.380;2023-05-10T03:38:26;8.73;;;5.47;;
8279;SDS011;8335;42.646;23.380;2023-05-10T03:40:53;6.80;;;4.90;;
8279;SDS011;8335;42.646;23.380;2023-05-10T03:43:20;7.13;;;5.10;;
8279;SDS011;8335;42.646;23.380;2023-05-10T03:45:48;6.87;;;5.20;;
8279;SDS011;8335;42.646;23.380;2023-05-10T03:48:15;5.93;;;5.00;;
8279;SDS011;8335;42.646;23.380;2023-05-10T03:50:42;7.27;;;5.40;;
8279;SDS011;8335;42.646;23.380;2023-05-10T03:53:08;6.63;;;5.27;;
8279;SDS011;8335;42.646;23.380;2023-05-10T03:55:35;8.13;;;5.47;;
8279;SDS011;8335;42.646;23.380;2023-05-10T03:58:02;8.47;;;5.63;;
8279;SDS011;8335;42.646;23.380;2023-05-10T04:00:29;7.83;;;5.53;;
8279;SDS011;8335;42.646;23.380;2023-05-10T04:02:58;5.90;;;5.27;;
8279;SDS011;8335;42.646;23.380;2023-05-10T04:05:24;7.13;;;5.53;;
8279;SDS011;8335;42.646;23.380;2023-05-10T04:07:51;6.20;;;4.93;;
8279;SDS011;8335;42.646;23.380;2023-05-10T04:10:18;7.23;;;5.30;;
8279;SDS011;8335;42.646;23.380;2023-05-10T04:12:45;9.53;;;5.83;;
8279;SDS011;8335;42.646;23.380;2023-05-10T04:15:12;8.67;;;4.97;;
8279;SDS011;8335;42.646;23.380;2023-05-10T04:17:39;6.97;;;5.30;;
8279;SDS011;8335;42.646;23.380;2023-05-10T04:20:07;7.43;;;5.70;;
8279;SDS011;8335;42.646;23.380;2023-05-10T04:22:35;14.97;;;6.40;;
8279;SDS011;8335;42.646;23.380;2023-05-10T04:25:01;12.50;;;6.27;;
8279;SDS011;8335;42.646;23.380;2023-05-10T04:27:29;7.83;;;5.50;;
8279;SDS011;8335;42.646;23.380;2023-05-10T04:29:56;11.43;;;5.73;;
8279;SDS011;8335;42.646;23.380;2023-05-10T04:32:22;8.83;;;5.93;;
8279;SDS011;8335;42.646;23.380;2023-05-10T04:34:49;8.77;;;5.63;;
8279;SDS011;8335;42.646;23.380;2023-05-10T04:37:18;7.37;;;6.07;;
8279;SDS011;8335;42.646;23.380;2023-05-10T04:39:45;8.53;;;5.67;;
8279;SDS011;8335;42.646;23.380;2023-05-10T04:42:11;8.50;;;5.90;;
8279;SDS011;8335;42.646;23.380;2023-05-10T04:44:39;7.43;;;5.87;;
8279;SDS011;8335;42.646;23.380;2023-05-10T04:47:06;7.83;;;6.27;;
8279;SDS011;8335;42.646;23.380;2023-05-10T04:49:33;8.07;;;5.80;;
8279;SDS011;8335;42.646;23.380;2023-05-10T04:52:00;7.50;;;5.57;;
8279;SDS011;8335;42.646;23.380;2023-05-10T04:54:28;8.27;;;6.27;;
8279;SDS011;8335;42.646;23.380;2023-05-10T04:56:54;8.07;;;5.70;;
8279;SDS011;8335;42.646;23.380;2023-05-10T04:59:21;7.10;;;5.77;;
8279;SDS011;8335;42.646;23.380;2023-05-10T05:01:48;11.80;;;6.27;;
8279;SDS011;8335;42.646;23.380;2023-05-10T05:04:14;6.33;;;5.20;;
8279;SDS011;8335;42.646;23.380;2023-05-10T05:06:41;8.73;;;6.37;;
8279;SDS011;8335;42.646;23.380;2023-05-10T05:09:08;8.43;;;6.57;;
8279;SDS011;8335;42.646;23.380;2023-05-10T05:11:36;9.30;;;6.43;;
8279;SDS011;8335;42.646;23.380;2023-05-10T05:14:03;8.07;;;6.37;;
8279;SDS011;8335;42.646;23.380;2023-05-10T05:16:30;8.23;;;6.53;;
8279;SDS011;8335;42.646;23.380;2023-05-10T05:18:56;11.10;;;6.87;;
8279;SDS011;8335;42.646;23.380;2023-05-10T05:21:23;8.30;;;6.90;;
8279;SDS011;8335;42.646;23.380;2023-05-10T05:23:51;8.50;;;6.57;;
8279;SDS011;8335;42.646;23.380;2023-05-10T05:26:18;11.87;;;6.90;;
8279;SDS011;8335;42.646;23.380;2023-05-10T05:28:46;9.23;;;6.80;;
8279;SDS011;8335;42.646;23.380;2023-05-10T05:31:13;11.10;;;7.17;;
8279;SDS011;8335;42.646;23.380;2023-05-10T05:33:40;9.50;;;7.00;;
8279;SDS011;8335;42.646;23.380;2023-05-10T05:36:07;10.87;;;7.47;;
8279;SDS011;8335;42.646;23.380;2023-05-10T05:38:34;8.93;;;7.40;;
8279;SDS011;8335;42.646;23.380;2023-05-10T05:41:01;10.63;;;7.03;;
8279;SDS011;8335;42.646;23.380;2023-05-10T05:43:28;9.40;;;7.13;;
8279;SDS011;8335;42.646;23.380;2023-05-10T05:45:56;9.80;;;7.40;;
8279;SDS011;8335;42.646;23.380;2023-05-10T05:48:23;9.40;;;7.07;;
8279;SDS011;8335;42.646;23.380;2023-05-10T05:50:53;12.63;;;8.90;;
8279;SDS011;8335;42.646;23.380;2023-05-10T05:53:21;12.97;;;9.77;;
8279;SDS011;8335;42.646;23.380;2023-05-10T05:55:51;12.47;;;9.97;;
8279;SDS011;8335;42.646;23.380;2023-05-10T05:58:19;13.43;;;9.17;;
8279;SDS011;8335;42.646;23.380;2023-05-10T06:00:45;11.93;;;9.00;;
8279;SDS011;8335;42.646;23.380;2023-05-10T06:03:14;14.27;;;8.77;;
8279;SDS011;8335;42.646;23.380;2023-05-10T06:05:40;11.07;;;8.33;;
8279;SDS011;8335;42.646;23.380;2023-05-10T06:08:07;13.40;;;8.37;;
8279;SDS011;8335;42.646;23.380;2023-05-10T06:10:34;10.23;;;8.20;;
8279;SDS011;8335;42.646;23.380;2023-05-10T06:13:00;10.80;;;8.67;;
8279;SDS011;8335;42.646;23.380;2023-05-10T06:15:27;13.43;;;8.83;;
8279;SDS011;8335;42.646;23.380;2023-05-10T06:17:54;11.87;;;8.33;;
8279;SDS011;8335;42.646;23.380;2023-05-10T06:20:23;12.83;;;9.30;;
8279;SDS011;8335;42.646;23.380;2023-05-10T06:22:49;12.57;;;9.10;;
8279;SDS011;8335;42.646;23.380;2023-05-10T06:25:16;11.73;;;9.40;;
8279;SDS011;8335;42.646;23.380;2023-05-10T06:27:43;14.37;;;9.53;;
8279;SDS011;8335;42.646;23.380;2023-05-10T06:30:10;16.73;;;10.57;;
8279;SDS011;8335;42.646;23.380;2023-05-10T06:32:38;15.00;;;9.63;;
8279;SDS011;8335;42.646;23.380;2023-05-10T06:35:05;14.03;;;9.97;;
8279;SDS011;8335;42.646;23.380;2023-05-10T06:37:34;13.07;;;9.27;;
8279;SDS011;8335;42.646;23.380;2023-05-10T06:40:01;14.40;;;9.13;;
8279;SDS011;8335;42.646;23.380;2023-05-10T06:42:28;11.70;;;8.90;;
8279;SDS011;8335;42.646;23.380;2023-05-10T06:44:55;13.90;;;9.30;;
8279;SDS011;8335;42.646;23.380;2023-05-10T06:47:22;11.47;;;8.70;;
8279;SDS011;8335;42.646;23.380;2023-05-10T06:49:48;14.27;;;8.83;;
8279;SDS011;8335;42.646;23.380;2023-05-10T06:52:15;12.70;;;9.00;;
8279;SDS011;8335;42.646;23.380;2023-05-10T06:54:43;15.53;;;9.27;;
8279;SDS011;8335;42.646;23.380;2023-05-10T06:57:10;10.87;;;9.03;;
8279;SDS011;8335;42.646;23.380;2023-05-10T06:59:37;13.03;;;8.60;;
8279;SDS011;8335;42.646;23.380;2023-05-10T07:02:03;12.97;;;8.30;;
8279;SDS011;8335;42.646;23.380;2023-05-10T07:04:30;13.17;;;8.73;;
8279;SDS011;8335;42.646;23.380;2023-05-10T07:06:57;12.07;;;8.57;;
8279;SDS011;8335;42.646;23.380;2023-05-10T07:09:24;10.97;;;7.13;;
8279;SDS011;8335;42.646;23.380;2023-05-10T07:11:52;11.60;;;8.10;;
8279;SDS011;8335;42.646;23.380;2023-05-10T07:14:19;8.63;;;6.90;;
8279;SDS011;8335;42.646;23.380;2023-05-10T07:16:46;8.90;;;7.07;;
8279;SDS011;8335;42.646;23.380;2023-05-10T07:19:12;11.07;;;7.47;;
8279;SDS011;8335;42.646;23.380;2023-05-10T07:21:39;10.20;;;7.77;;
8279;SDS011;8335;42.646;23.380;2023-05-10T07:24:08;10.00;;;7.07;;
8279;SDS011;8335;42.646;23.380;2023-05-10T07:26:35;9.30;;;7.40;;
8279;SDS011;8335;42.646;23.380;2023-05-10T07:29:03;13.93;;;9.10;;
8279;SDS011;8335;42.646;23.380;2023-05-10T07:31:30;15.03;;;8.93;;
8279;SDS011;8335;42.646;23.380;2023-05-10T07:33:56;13.10;;;8.17;;
8279;SDS011;8335;42.646;23.380;2023-05-10T07:36:23;13.17;;;8.27;;
8279;SDS011;8335;42.646;23.380;2023-05-10T07:38:50;14.37;;;9.07;;
8279;SDS011;8335;42.646;23.380;2023-05-10T07:41:17;10.77;;;9.00;;
8279;SDS011;8335;42.646;23.380;2023-05-10T07:43:43;12.83;;;9.53;;
8279;SDS011;8335;42.646;23.380;2023-05-10T07:46:12;12.10;;;8.73;;
8279;SDS011;8335;42.646;23.380;2023-05-10T07:48:38;14.97;;;9.10;;
8279;SDS011;8335;42.646;23.380;2023-05-10T07:51:05;14.03;;;8.63;;
8279;SDS011;8335;42.646;23.380;2023-05-10T07:53:34;14.13;;;8.97;;
8279;SDS011;8335;42.646;23.380;2023-05-10T07:56:19;10.93;;;8.50;;
8279;SDS011;8335;42.646;23.380;2023-05-10T07:58:47;11.60;;;9.13;;
8279;SDS011;8335;42.646;23.380;2023-05-10T08:01:15;14.37;;;9.60;;
8279;SDS011;8335;42.646;23.380;2023-05-10T08:03:42;11.27;;;9.03;;
8279;SDS011;8335;42.646;23.380;2023-05-10T08:06:09;12.73;;;9.20;;
8279;SDS011;8335;42.646;23.380;2023-05-10T08:08:36;11.87;;;9.27;;
8279;SDS011;8335;42.646;23.380;2023-05-10T08:11:03;10.33;;;9.10;;
8279;SDS011;8335;42.646;23.380;2023-05-10T08:13:29;13.60;;;9.27;;
8279;SDS011;8335;42.646;23.380;2023-05-10T08:15:56;11.83;;;8.87;;
8279;SDS011;8335;42.646;23.380;2023-05-10T08:18:25;13.40;;;9.53;;
8279;SDS011;8335;42.646;23.380;2023-05-10T08:20:51;16.30;;;10.23;;
8279;SDS011;8335;42.646;23.380;2023-05-10T08:23:18;12.53;;;10.10;;
8279;SDS011;8335;42.646;23.380;2023-05-10T08:25:45;15.33;;;10.30;;
8279;SDS011;8335;42.646;23.380;2023-05-10T08:28:12;13.73;;;9.27;;
8279;SDS011;8335;42.646;23.380;2023-05-10T08:30:39;11.40;;;9.33;;
8279;SDS011;8335;42.646;23.380;2023-05-10T08:33:05;15.53;;;9.60;;
8279;SDS011;8335;42.646;23.380;2023-05-10T08:35:34;11.30;;;8.90;;
8279;SDS011;8335;42.646;23.380;2023-05-10T08:38:00;15.60;;;9.70;;
8279;SDS011;8335;42.646;23.380;2023-05-10T08:40:27;13.67;;;10.07;;
8279;SDS011;8335;42.646;23.380;2023-05-10T08:42:55;12.93;;;9.30;;
8279;SDS011;8335;42.646;23.380;2023-05-10T08:45:30;14.47;;;9.47;;
8279;SDS011;8335;42.646;23.380;2023-05-10T08:47:59;12.93;;;9.53;;
8279;SDS011;8335;42.646;23.380;2023-05-10T08:50:27;14.07;;;9.67;;
8279;SDS011;8335;42.646;23.380;2023-05-10T08:52:57;14.13;;;8.93;;
8279;SDS011;8335;42.646;23.380;2023-05-10T08:55:26;10.87;;;8.03;;
8279;SDS011;8335;42.646;23.380;2023-05-10T08:57:53;11.67;;;8.80;;
8279;SDS011;8335;42.646;23.380;2023-05-10T09:00:21;15.23;;;9.00;;
8279;SDS011;8335;42.646;23.380;2023-05-10T09:02:49;11.00;;;8.63;;
8279;SDS011;8335;42.646;23.380;2023-05-10T09:05:16;12.47;;;8.83;;
8279;SDS011;8335;42.646;23.380;2023-05-10T09:07:43;12.30;;;9.17;;
8279;SDS011;8335;42.646;23.380;2023-05-10T09:10:11;13.27;;;9.10;;
8279;SDS011;8335;42.646;23.380;2023-05-10T09:12:40;12.43;;;9.47;;
8279;SDS011;8335;42.646;23.380;2023-05-10T09:15:09;10.70;;;9.00;;
8279;SDS011;8335;42.646;23.380;2023-05-10T09:17:37;13.77;;;9.20;;
8279;SDS011;8335;42.646;23.380;2023-05-10T09:20:06;11.07;;;9.10;;
8279;SDS011;8335;42.646;23.380;2023-05-10T09:22:33;14.33;;;9.20;;
8279;SDS011;8335;42.646;23.380;2023-05-10T09:25:07;15.07;;;9.70;;
8279;SDS011;8335;42.646;23.380;2023-05-10T09:27:37;14.03;;;9.50;;
8279;SDS011;8335;42.646;23.380;2023-05-10T09:30:06;11.40;;;9.10;;
8279;SDS011;8335;42.646;23.380;2023-05-10T09:32:37;14.60;;;9.53;;
8279;SDS011;8335;42.646;23.380;2023-05-10T09:35:08;12.20;;;10.13;;
8279;SDS011;8335;42.646;23.380;2023-05-10T09:37:36;11.67;;;9.70;;
8279;SDS011;8335;42.646;23.380;2023-05-10T09:40:06;11.47;;;8.77;;
8279;SDS011;8335;42.646;23.380;2023-05-10T09:42:33;13.87;;;9.23;;
8279;SDS011;8335;42.646;23.380;2023-05-10T09:45:05;11.07;;;9.27;;
8279;SDS011;8335;42.646;23.380;2023-05-10T09:47:33;9.67;;;8.57;;
8279;SDS011;8335;42.646;23.380;2023-05-10T09:50:00;9.40;;;8.33;;
8279;SDS011;8335;42.646;23.380;2023-05-10T09:52:29;10.47;;;8.50;;
8279;SDS011;8335;42.646;23.380;2023-05-10T09:54:57;10.37;;;8.63;;
8279;SDS011;8335;42.646;23.380;2023-05-10T09:57:24;9.40;;;8.40;;
8279;SDS011;8335;42.646;23.380;2023-05-10T09:59:52;10.30;;;8.50;;
8279;SDS011;8335;42.646;23.380;2023-05-10T10:02:20;10.50;;;8.20;;
8279;SDS011;8335;42.646;23.380;2023-05-10T10:04:54;10.13;;;8.70;;
8279;SDS011;8335;42.646;23.380;2023-05-10T10:07:22;10.90;;;8.43;;
8279;SDS011;8335;42.646;23.380;2023-05-10T10:09:50;12.60;;;8.53;;
8279;SDS011;8335;42.646;23.380;2023-05-10T10:12:18;9.73;;;8.13;;
8279;SDS011;8335;42.646;23.380;2023-05-10T10:14:45;9.40;;;8.00;;
8279;SDS011;8335;42.646;23.380;2023-05-10T10:17:14;10.20;;;8.13;;
8279;SDS011;8335;42.646;23.380;2023-05-10T10:19:43;10.60;;;8.10;;
8279;SDS011;8335;42.646;23.380;2023-05-10T10:22:10;10.70;;;7.60;;
8279;SDS011;8335;42.646;23.380;2023-05-10T10:24:37;8.47;;;7.57;;
8279;SDS011;8335;42.646;23.380;2023-05-10T10:27:09;10.37;;;7.23;;
8279;SDS011;8335;42.646;23.380;2023-05-10T10:29:45;8.77;;;7.43;;
8279;SDS011;8335;42.646;23.380;2023-05-10T10:32:20;8.93;;;7.63;;
8279;SDS011;8335;42.646;23.380;2023-05-10T10:34:53;12.33;;;8.30;;
8279;SDS011;8335;42.646;23.380;2023-05-10T10:37:21;7.93;;;6.83;;
8279;SDS011;8335;42.646;23.380;2023-05-10T10:39:48;7.80;;;6.97;;
8279;SDS011;8335;42.646;23.380;2023-05-10T10:42:15;9.33;;;7.07;;
8279;SDS011;8335;42.646;23.380;2023-05-10T10:45:12;10.13;;;7.27;;
8279;SDS011;8335;42.646;23.380;2023-05-10T10:47:39;9.00;;;7.20;;
8279;SDS011;8335;42.646;23.380;2023-05-10T10:50:09;8.00;;;7.07;;
8279;SDS011;8335;42.646;23.380;2023-05-10T10:52:38;10.00;;;6.90;;
8279;SDS011;8335;42.646;23.380;2023-05-10T10:55:06;9.17;;;6.63;;
8279;SDS011;8335;42.646;23.380;2023-05-10T10:57:42;10.33;;;7.03;;
8279;SDS011;8335;42.646;23.380;2023-05-10T11:00:18;9.47;;;6.87;;
8279;SDS011;8335;42.646;23.380;2023-05-10T11:02:56;11.53;;;7.47;;
8279;SDS011;8335;42.646;23.380;2023-05-10T11:08:18;10.20;;;6.43;;
8279;SDS011;8335;42.646;23.380;2023-05-10T11:11:02;8.60;;;7.03;;
8279;SDS011;8335;42.646;23.380;2023-05-10T11:13:32;10.30;;;7.10;;
8279;SDS011;8335;42.646;23.380;2023-05-10T11:16:09;10.60;;;6.67;;
8279;SDS011;8335;42.646;23.380;2023-05-10T11:18:37;8.53;;;7.07;;
8279;SDS011;8335;42.646;23.380;2023-05-10T11:21:08;12.23;;;6.80;;
8279;SDS011;8335;42.646;23.380;2023-05-10T11:23:47;7.90;;;7.10;;
8279;SDS011;8335;42.646;23.380;2023-05-10T11:26:15;10.53;;;7.23;;
8279;SDS011;8335;42.646;23.380;2023-05-10T11:28:42;11.27;;;7.23;;
8279;SDS011;8335;42.646;23.380;2023-05-10T11:31:10;11.27;;;7.57;;
8279;SDS011;8335;42.646;23.380;2023-05-10T11:33:42;9.67;;;7.57;;
8279;SDS011;8335;42.646;23.380;2023-05-10T11:36:11;9.87;;;7.43;;
8279;SDS011;8335;42.646;23.380;2023-05-10T11:38:38;9.83;;;7.17;;
8279;SDS011;8335;42.646;23.380;2023-05-10T11:41:05;11.37;;;7.67;;
8279;SDS011;8335;42.646;23.380;2023-05-10T11:43:34;11.10;;;7.90;;
8279;SDS011;8335;42.646;23.380;2023-05-10T11:46:03;9.43;;;7.60;;
8279;SDS011;8335;42.646;23.380;2023-05-10T11:48:30;7.73;;;6.93;;
8279;SDS011;8335;42.646;23.380;2023-05-10T11:50:57;12.80;;;7.83;;
8279;SDS011;8335;42.646;23.380;2023-05-10T11:53:26;9.40;;;7.50;;
8279;SDS011;8335;42.646;23.380;2023-05-10T11:55:54;10.07;;;7.20;;
8279;SDS011;8335;42.646;23.380;2023-05-10T11:58:20;11.93;;;8.50;;
8279;SDS011;8335;42.646;23.380;2023-05-10T12:00:48;11.23;;;7.97;;
8279;SDS011;8335;42.646;23.380;2023-05-10T12:03:16;9.47;;;7.70;;
8279;SDS011;8335;42.646;23.380;2023-05-10T12:05:43;10.83;;;7.90;;
8279;SDS011;8335;42.646;23.380;2023-05-10T12:08:10;10.30;;;7.77;;
8279;SDS011;8335;42.646;23.380;2023-05-10T12:10:39;10.83;;;7.33;;
8279;SDS011;8335;42.646;23.380;2023-05-10T12:13:10;10.53;;;7.60;;
8279;SDS011;8335;42.646;23.380;2023-05-10T12:15:38;9.87;;;7.60;;
8279;SDS011;8335;42.646;23.380;2023-05-10T12:18:05;11.17;;;7.30;;
8279;SDS011;8335;42.646;23.380;2023-05-10T12:20:32;10.50;;;7.60;;
8279;SDS011;8335;42.646;23.380;2023-05-10T12:22:58;10.10;;;7.93;;
8279;SDS011;8335;42.646;23.380;2023-05-10T12:25:29;11.07;;;7.67;;
8279;SDS011;8335;42.646;23.380;2023-05-10T12:28:00;23.17;;;8.93;;
8279;SDS011;8335;42.646;23.380;2023-05-10T12:30:31;11.70;;;8.60;;
8279;SDS011;8335;42.646;23.380;2023-05-10T12:33:00;9.60;;;7.33;;
8279;SDS011;8335;42.646;23.380;2023-05-10T12:35:29;9.40;;;7.83;;
8279;SDS011;8335;42.646;23.380;2023-05-10T12:37:57;8.67;;;6.97;;
8279;SDS011;8335;42.646;23.380;2023-05-10T12:40:23;11.27;;;7.47;;
8279;SDS011;8335;42.646;23.380;2023-05-10T12:42:50;10.30;;;7.57;;
8279;SDS011;8335;42.646;23.380;2023-05-10T12:45:19;8.53;;;7.20;;
8279;SDS011;8335;42.646;23.380;2023-05-10T12:47:47;8.90;;;7.30;;
8279;SDS011;8335;42.646;23.380;2023-05-10T12:50:13;11.10;;;7.07;;
8279;SDS011;8335;42.646;23.380;2023-05-10T12:52:40;7.73;;;6.50;;
8279;SDS011;8335;42.646;23.380;2023-05-10T12:55:07;8.93;;;7.10;;
8279;SDS011;8335;42.646;23.380;2023-05-10T12:57:34;9.13;;;6.87;;
8279;SDS011;8335;42.646;23.380;2023-05-10T13:00:01;7.47;;;6.53;;
8279;SDS011;8335;42.646;23.380;2023-05-10T13:02:31;8.67;;;6.80;;
8279;SDS011;8335;42.646;23.380;2023-05-10T13:04:58;8.43;;;6.87;;
8279;SDS011;8335;42.646;23.380;2023-05-10T13:07:25;10.90;;;7.03;;
8279;SDS011;8335;42.646;23.380;2023-05-10T13:09:51;9.47;;;6.67;;
8279;SDS011;8335;42.646;23.380;2023-05-10T13:12:18;10.17;;;6.13;;
8279;SDS011;8335;42.646;23.380;2023-05-10T13:14:45;12.00;;;6.97;;
8279;SDS011;8335;42.646;23.380;2023-05-10T13:17:12;11.67;;;6.90;;
8279;SDS011;8335;42.646;23.380;2023-05-10T13:19:40;11.33;;;7.43;;
8279;SDS011;8335;42.646;23.380;2023-05-10T13:22:06;7.70;;;6.50;;
8279;SDS011;8335;42.646;23.380;2023-05-10T13:24:33;16.47;;;6.47;;
8279;SDS011;8335;42.646;23.380;2023-05-10T13:27:00;9.87;;;7.07;;
8279;SDS011;8335;42.646;23.380;2023-05-10T13:29:27;8.87;;;6.77;;
8279;SDS011;8335;42.646;23.380;2023-05-10T13:31:54;7.03;;;6.33;;
8279;SDS011;8335;42.646;23.380;2023-05-10T13:34:21;8.13;;;6.70;;
8279;SDS011;8335;42.646;23.380;2023-05-10T13:36:49;11.73;;;6.90;;
8279;SDS011;8335;42.646;23.380;2023-05-10T13:39:16;11.63;;;7.30;;
8279;SDS011;8335;42.646;23.380;2023-05-10T13:41:43;9.10;;;7.20;;
8279;SDS011;8335;42.646;23.380;2023-05-10T13:44:11;11.33;;;6.80;;
8279;SDS011;8335;42.646;23.380;2023-05-10T13:46:38;8.30;;;6.57;;
8279;SDS011;8335;42.646;23.380;2023-05-10T13:49:05;9.03;;;6.30;;
8279;SDS011;8335;42.646;23.380;2023-05-10T13:51:33;8.77;;;6.70;;
8279;SDS011;8335;42.646;23.380;2023-05-10T13:54:02;7.93;;;6.87;;
8279;SDS011;8335;42.646;23.380;2023-05-10T13:56:29;10.03;;;7.30;;
8279;SDS011;8335;42.646;23.380;2023-05-10T13:58:56;8.80;;;6.70;;
8279;SDS011;8335;42.646;23.380;2023-05-10T14:01:23;7.10;;;6.17;;
8279;SDS011;8335;42.646;23.380;2023-05-10T14:03:50;10.10;;;7.03;;
8279;SDS011;8335;42.646;23.380;2023-05-10T14:06:16;10.90;;;6.57;;
8279;SDS011;8335;42.646;23.380;2023-05-10T14:08:43;9.40;;;6.67;;
8279;SDS011;8335;42.646;23.380;2023-05-10T14:11:12;7.80;;;6.77;;
8279;SDS011;8335;42.646;23.380;2023-05-10T14:13:38;8.87;;;7.40;;
8279;SDS011;8335;42.646;23.380;2023-05-10T14:16:05;10.33;;;8.10;;
8279;SDS011;8335;42.646;23.380;2023-05-10T14:18:32;9.10;;;7.07;;
8279;SDS011;8335;42.646;23.380;2023-05-10T14:20:59;10.20;;;6.97;;
8279;SDS011;8335;42.646;23.380;2023-05-10T14:23:26;8.63;;;6.63;;
8279;SDS011;8335;42.646;23.380;2023-05-10T14:25:53;11.27;;;7.60;;
8279;SDS011;8335;42.646;23.380;2023-05-10T14:28:22;10.13;;;7.23;;
8279;SDS011;8335;42.646;23.380;2023-05-10T14:30:50;9.30;;;7.10;;
8279;SDS011;8335;42.646;23.380;2023-05-10T14:33:17;11.37;;;7.97;;
8279;SDS011;8335;42.646;23.380;2023-05-10T14:35:44;11.60;;;7.23;;
8279;SDS011;8335;42.646;23.380;2023-05-10T14:38:11;8.27;;;7.10;;
8279;SDS011;8335;42.646;23.380;2023-05-10T14:40:38;10.63;;;7.10;;
8279;SDS011;8335;42.646;23.380;2023-05-10T14:43:05;10.33;;;7.60;;
8279;SDS011;8335;42.646;23.380;2023-05-10T14:45:33;13.30;;;8.10;;
8279;SDS011;8335;42.646;23.380;2023-05-10T14:48:00;10.73;;;7.57;;
8279;SDS011;8335;42.646;23.380;2023-05-10T14:50:29;11.03;;;7.30;;
8279;SDS011;8335;42.646;23.380;2023-05-10T14:52:56;10.27;;;7.60;;
8279;SDS011;8335;42.646;23.380;2023-05-10T14:55:23;9.13;;;7.10;;
8279;SDS011;8335;42.646;23.380;2023-05-10T14:57:50;9.43;;;6.73;;
8279;SDS011;8335;42.646;23.380;2023-05-10T15:00:17;11.73;;;7.47;;
8279;SDS011;8335;42.646;23.380;2023-05-10T15:02:46;10.67;;;6.60;;
8279;SDS011;8335;42.646;23.380;2023-05-10T15:05:13;12.13;;;7.20;;